sensor_id;sensor_type;location;lat;lon;timestamp;P1;durP1;ratioP1;P2;durP2;ratioP2
1721;SDS011;858;53.190;8.596;2023-02-10T00:00:45;47.07;;;29.53;;
1721;SDS011;858;53.190;8.596;2023-02-10T00:03:12;57.83;;;29.90;;
1721;SDS011;858;53.190;8.596;2023-02-10T00:05:38;55.70;;;31.30;;
1721;SDS011;858;53.190;8.596;2023-02-10T00:08:06;49.77;;;30.37;;
1721;SDS011;858;53.190;8.596;2023-02-10T00:10:33;49.90;;;28.13;;
1721;SDS011;858;53.190;8.596;2023-02-10T00:13:00;58.00;;;30.67;;
1721;SDS011;858;53.190;8.596;2023-02-10T00:15:26;52.27;;;30.17;;
1721;SDS011;858;53.190;8.596;2023-02-10T00:17:53;53.97;;;28.53;;
1721;SDS011;858;53.190;8.596;2023-02-10T00:20:19;55.97;;;28.70;;
1721;SDS011;858;53.190;8.596;2023-02-10T00:22:46;58.60;;;30.53;;
1721;SDS011;858;53.190;8.596;2023-02-10T00:25:14;47.10;;;27.10;;
1721;SDS011;858;53.190;8.596;2023-02-10T00:27:40;57.77;;;31.07;;
1721;SDS011;858;53.190;8.596;2023-02-10T00:30:07;56.70;;;27.07;;
1721;SDS011;858;53.190;8.596;2023-02-10T00:32:33;54.93;;;30.20;;
1721;SDS011;858;53.190;8.596;2023-02-10T00:35:02;49.83;;;28.17;;
1721;SDS011;858;53.190;8.596;2023-02-10T00:37:29;52.63;;;27.87;;
1721;SDS011;858;53.190;8.596;2023-02-10T00:39:55;44.93;;;27.33;;
1721;SDS011;858;53.190;8.596;2023-02-10T00:42:23;58.10;;;28.40;;
1721;SDS011;858;53.190;8.596;2023-02-10T00:44:49;52.03;;;27.53;;
1721;SDS011;858;53.190;8.596;2023-02-10T00:47:17;45.53;;;26.27;;
1721;SDS011;858;53.190;8.596;2023-02-10T00:49:43;50.13;;;26.80;;
1721;SDS011;858;53.190;8.596;2023-02-10T00:52:10;48.90;;;28.07;;
1721;SDS011;858;53.190;8.596;2023-02-10T00:54:36;53.73;;;27.83;;
1721;SDS011;858;53.190;8.596;2023-02-10T00:57:03;51.77;;;26.13;;
1721;SDS011;858;53.190;8.596;2023-02-10T00:59:30;63.23;;;29.73;;
1721;SDS011;858;53.190;8.596;2023-02-10T01:01:58;51.93;;;26.53;;
1721;SDS011;858;53.190;8.596;2023-02-10T01:04:24;47.87;;;28.80;;
1721;SDS011;858;53.190;8.596;2023-02-10T01:06:51;53.77;;;27.77;;
1721;SDS011;858;53.190;8.596;2023-02-10T01:09:17;53.20;;;28.00;;
1721;SDS011;858;53.190;8.596;2023-02-10T01:11:43;47.83;;;27.50;;
1721;SDS011;858;53.190;8.596;2023-02-10T01:14:10;48.53;;;27.60;;
1721;SDS011;858;53.190;8.596;2023-02-10T01:16:38;47.77;;;27.73;;
1721;SDS011;858;53.190;8.596;2023-02-10T01:19:06;55.93;;;28.43;;
1721;SDS011;858;53.190;8.596;2023-02-10T01:21:32;52.23;;;28.87;;
1721;SDS011;858;53.190;8.596;2023-02-10T01:23:59;49.30;;;25.93;;
1721;SDS011;858;53.190;8.596;2023-02-10T01:26:27;50.67;;;27.83;;
1721;SDS011;858;53.190;8.596;2023-02-10T01:28:53;53.53;;;28.73;;
1721;SDS011;858;53.190;8.596;2023-02-10T01:31:20;55.43;;;26.70;;
1721;SDS011;858;53.190;8.596;2023-02-10T01:33:52;52.77;;;25.67;;
1721;SDS011;858;53.190;8.596;2023-02-10T01:36:20;46.03;;;26.00;;
1721;SDS011;858;53.190;8.596;2023-02-10T01:38:47;54.80;;;27.70;;
1721;SDS011;858;53.190;8.596;2023-02-10T01:41:14;49.60;;;25.80;;
1721;SDS011;858;53.190;8.596;2023-02-10T01:43:55;42.30;;;24.00;;
1721;SDS011;858;53.190;8.596;2023-02-10T01:46:22;60.30;;;27.27;;
1721;SDS011;858;53.190;8.596;2023-02-10T01:48:51;50.80;;;26.20;;
1721;SDS011;858;53.190;8.596;2023-02-10T01:51:18;43.63;;;24.53;;
1721;SDS011;858;53.190;8.596;2023-02-10T01:53:45;51.33;;;24.63;;
1721;SDS011;858;53.190;8.596;2023-02-10T01:56:12;44.97;;;23.80;;
1721;SDS011;858;53.190;8.596;2023-02-10T01:58:40;48.40;;;24.40;;
1721;SDS011;858;53.190;8.596;2023-02-10T02:01:09;47.57;;;24.60;;
1721;SDS011;858;53.190;8.596;2023-02-10T02:03:36;54.43;;;26.67;;
1721;SDS011;858;53.190;8.596;2023-02-10T02:06:07;46.87;;;23.50;;
1721;SDS011;858;53.190;8.596;2023-02-10T02:08:34;46.90;;;26.90;;
1721;SDS011;858;53.190;8.596;2023-02-10T02:11:04;46.73;;;24.90;;
1721;SDS011;858;53.190;8.596;2023-02-10T02:13:38;40.13;;;25.20;;
1721;SDS011;858;53.190;8.596;2023-02-10T02:16:09;54.23;;;26.50;;
1721;SDS011;858;53.190;8.596;2023-02-10T02:18:39;49.20;;;24.93;;
1721;SDS011;858;53.190;8.596;2023-02-10T02:24:26;47.80;;;25.13;;
1721;SDS011;858;53.190;8.596;2023-02-10T02:29:52;48.20;;;25.67;;
1721;SDS011;858;53.190;8.596;2023-02-10T02:32:25;48.33;;;24.47;;
1721;SDS011;858;53.190;8.596;2023-02-10T02:34:53;44.30;;;22.93;;
1721;SDS011;858;53.190;8.596;2023-02-10T02:37:22;53.47;;;23.40;;
1721;SDS011;858;53.190;8.596;2023-02-10T02:39:50;39.83;;;23.90;;
1721;SDS011;858;53.190;8.596;2023-02-10T02:42:21;46.93;;;24.30;;
1721;SDS011;858;53.190;8.596;2023-02-10T02:44:48;51.53;;;23.80;;
1721;SDS011;858;53.190;8.596;2023-02-10T02:47:27;38.97;;;24.53;;
1721;SDS011;858;53.190;8.596;2023-02-10T02:49:56;38.23;;;22.50;;
1721;SDS011;858;53.190;8.596;2023-02-10T02:52:28;38.57;;;22.97;;
1721;SDS011;858;53.190;8.596;2023-02-10T02:54:59;43.07;;;22.03;;
1721;SDS011;858;53.190;8.596;2023-02-10T02:57:29;42.30;;;22.70;;
1721;SDS011;858;53.190;8.596;2023-02-10T03:00:03;42.43;;;22.97;;
1721;SDS011;858;53.190;8.596;2023-02-10T03:02:33;50.40;;;23.67;;
1721;SDS011;858;53.190;8.596;2023-02-10T03:05:00;45.87;;;22.67;;
1721;SDS011;858;53.190;8.596;2023-02-10T03:07:26;37.20;;;20.73;;
1721;SDS011;858;53.190;8.596;2023-02-10T03:09:53;42.90;;;23.60;;
1721;SDS011;858;53.190;8.596;2023-02-10T03:12:19;51.90;;;23.17;;
1721;SDS011;858;53.190;8.596;2023-02-10T03:14:45;40.10;;;21.50;;
1721;SDS011;858;53.190;8.596;2023-02-10T03:17:12;48.90;;;22.80;;
1721;SDS011;858;53.190;8.596;2023-02-10T03:19:40;44.17;;;23.47;;
1721;SDS011;858;53.190;8.596;2023-02-10T03:22:06;42.17;;;22.77;;
1721;SDS011;858;53.190;8.596;2023-02-10T03:24:33;41.00;;;24.27;;
1721;SDS011;858;53.190;8.596;2023-02-10T03:26:59;46.40;;;23.80;;
1721;SDS011;858;53.190;8.596;2023-02-10T03:29:25;52.20;;;24.10;;
1721;SDS011;858;53.190;8.596;2023-02-10T03:31:52;41.37;;;24.13;;
1721;SDS011;858;53.190;8.596;2023-02-10T03:34:20;41.43;;;24.60;;
1721;SDS011;858;53.190;8.596;2023-02-10T03:36:48;37.33;;;22.90;;
1721;SDS011;858;53.190;8.596;2023-02-10T03:39:14;44.27;;;23.13;;
1721;SDS011;858;53.190;8.596;2023-02-10T03:41:40;39.93;;;22.77;;
1721;SDS011;858;53.190;8.596;2023-02-10T03:44:07;44.57;;;25.00;;
1721;SDS011;858;53.190;8.596;2023-02-10T03:46:33;43.50;;;24.20;;
1721;SDS011;858;53.190;8.596;2023-02-10T03:49:02;47.77;;;23.60;;
1721;SDS011;858;53.190;8.596;2023-02-10T03:51:28;44.37;;;23.03;;
1721;SDS011;858;53.190;8.596;2023-02-10T03:53:56;43.80;;;22.33;;
1721;SDS011;858;53.190;8.596;2023-02-10T03:56:22;41.53;;;22.60;;
1721;SDS011;858;53.190;8.596;2023-02-10T03:58:49;45.57;;;22.27;;
1721;SDS011;858;53.190;8.596;2023-02-10T04:01:16;46.63;;;23.30;;
1721;SDS011;858;53.190;8.596;2023-02-10T04:03:42;51.27;;;25.20;;
1721;SDS011;858;53.190;8.596;2023-02-10T04:06:09;50.13;;;23.57;;
1721;SDS011;858;53.190;8.596;2023-02-10T04:08:36;42.70;;;22.97;;
1721;SDS011;858;53.190;8.596;2023-02-10T04:11:05;55.03;;;25.43;;
1721;SDS011;858;53.190;8.596;2023-02-10T04:13:32;54.57;;;23.53;;
1721;SDS011;858;53.190;8.596;2023-02-10T04:16:01;38.13;;;23.10;;
1721;SDS011;858;53.190;8.596;2023-02-10T04:18:28;40.30;;;22.10;;
1721;SDS011;858;53.190;8.596;2023-02-10T04:20:55;45.63;;;25.23;;
1721;SDS011;858;53.190;8.596;2023-02-10T04:23:22;44.50;;;21.87;;
1721;SDS011;858;53.190;8.596;2023-02-10T04:25:48;44.70;;;24.17;;
1721;SDS011;858;53.190;8.596;2023-02-10T04:28:16;42.77;;;23.60;;
1721;SDS011;858;53.190;8.596;2023-02-10T04:30:42;47.73;;;23.37;;
1721;SDS011;858;53.190;8.596;2023-02-10T04:33:09;73.47;;;24.10;;
1721;SDS011;858;53.190;8.596;2023-02-10T04:35:35;45.83;;;22.93;;
1721;SDS011;858;53.190;8.596;2023-02-10T04:38:02;38.00;;;22.40;;
1721;SDS011;858;53.190;8.596;2023-02-10T04:40:30;47.17;;;22.87;;
1721;SDS011;858;53.190;8.596;2023-02-10T04:42:56;43.87;;;24.30;;
1721;SDS011;858;53.190;8.596;2023-02-10T04:45:24;51.90;;;23.77;;
1721;SDS011;858;53.190;8.596;2023-02-10T04:47:50;42.80;;;22.70;;
1721;SDS011;858;53.190;8.596;2023-02-10T04:50:17;41.60;;;24.90;;
1721;SDS011;858;53.190;8.596;2023-02-10T04:52:43;54.60;;;25.97;;
1721;SDS011;858;53.190;8.596;2023-02-10T04:55:10;42.13;;;23.80;;
1721;SDS011;858;53.190;8.596;2023-02-10T04:57:36;45.23;;;22.50;;
1721;SDS011;858;53.190;8.596;2023-02-10T05:00:03;46.33;;;22.53;;
1721;SDS011;858;53.190;8.596;2023-02-10T05:02:31;39.90;;;21.80;;
1721;SDS011;858;53.190;8.596;2023-02-10T05:04:57;40.67;;;22.03;;
1721;SDS011;858;53.190;8.596;2023-02-10T05:07:24;44.60;;;22.53;;
1721;SDS011;858;53.190;8.596;2023-02-10T05:09:51;48.50;;;23.50;;
1721;SDS011;858;53.190;8.596;2023-02-10T05:12:18;50.57;;;24.70;;
1721;SDS011;858;53.190;8.596;2023-02-10T05:14:44;47.53;;;22.77;;
1721;SDS011;858;53.190;8.596;2023-02-10T05:17:10;40.17;;;22.80;;
1721;SDS011;858;53.190;8.596;2023-02-10T05:19:38;42.37;;;22.30;;
1721;SDS011;858;53.190;8.596;2023-02-10T05:22:05;37.80;;;22.47;;
1721;SDS011;858;53.190;8.596;2023-02-10T05:24:31;45.50;;;23.47;;
1721;SDS011;858;53.190;8.596;2023-02-10T05:26:58;38.43;;;22.37;;
1721;SDS011;858;53.190;8.596;2023-02-10T05:29:24;42.33;;;22.10;;
1721;SDS011;858;53.190;8.596;2023-02-10T05:31:50;40.77;;;24.67;;
1721;SDS011;858;53.190;8.596;2023-02-10T05:34:17;40.47;;;23.30;;
1721;SDS011;858;53.190;8.596;2023-02-10T05:36:45;48.77;;;24.10;;
1721;SDS011;858;53.190;8.596;2023-02-10T05:39:11;41.20;;;22.13;;
1721;SDS011;858;53.190;8.596;2023-02-10T05:41:51;41.50;;;22.50;;
1721;SDS011;858;53.190;8.596;2023-02-10T05:44:18;48.23;;;24.23;;
1721;SDS011;858;53.190;8.596;2023-02-10T05:46:44;48.17;;;22.83;;
1721;SDS011;858;53.190;8.596;2023-02-10T05:49:11;47.60;;;23.60;;
1721;SDS011;858;53.190;8.596;2023-02-10T05:51:37;45.60;;;22.87;;
1721;SDS011;858;53.190;8.596;2023-02-10T05:54:05;48.93;;;23.27;;
1721;SDS011;858;53.190;8.596;2023-02-10T05:56:32;38.47;;;25.30;;
1721;SDS011;858;53.190;8.596;2023-02-10T05:58:58;43.97;;;25.37;;
1721;SDS011;858;53.190;8.596;2023-02-10T06:01:25;42.63;;;23.67;;
1721;SDS011;858;53.190;8.596;2023-02-10T06:03:51;37.40;;;23.07;;
1721;SDS011;858;53.190;8.596;2023-02-10T06:06:18;47.63;;;23.37;;
1721;SDS011;858;53.190;8.596;2023-02-10T06:08:46;36.57;;;22.53;;
1721;SDS011;858;53.190;8.596;2023-02-10T06:11:14;42.57;;;23.80;;
1721;SDS011;858;53.190;8.596;2023-02-10T06:13:40;40.07;;;23.80;;
1721;SDS011;858;53.190;8.596;2023-02-10T06:16:08;50.40;;;24.47;;
1721;SDS011;858;53.190;8.596;2023-02-10T06:18:36;51.50;;;23.20;;
1721;SDS011;858;53.190;8.596;2023-02-10T06:21:03;43.90;;;22.40;;
1721;SDS011;858;53.190;8.596;2023-02-10T06:23:29;46.63;;;25.80;;
1721;SDS011;858;53.190;8.596;2023-02-10T06:25:56;45.13;;;23.30;;
1721;SDS011;858;53.190;8.596;2023-02-10T06:28:25;47.80;;;26.60;;
1721;SDS011;858;53.190;8.596;2023-02-10T06:30:52;43.60;;;24.67;;
1721;SDS011;858;53.190;8.596;2023-02-10T06:33:19;42.30;;;23.80;;
1721;SDS011;858;53.190;8.596;2023-02-10T06:35:45;46.43;;;24.10;;
1721;SDS011;858;53.190;8.596;2023-02-10T06:38:12;47.03;;;24.70;;
1721;SDS011;858;53.190;8.596;2023-02-10T06:40:39;45.37;;;24.30;;
1721;SDS011;858;53.190;8.596;2023-02-10T06:43:07;49.63;;;25.40;;
1721;SDS011;858;53.190;8.596;2023-02-10T06:45:35;38.73;;;22.43;;
1721;SDS011;858;53.190;8.596;2023-02-10T06:48:02;61.60;;;25.47;;
1721;SDS011;858;53.190;8.596;2023-02-10T06:50:28;48.43;;;25.17;;
1721;SDS011;858;53.190;8.596;2023-02-10T06:52:55;38.97;;;23.50;;
1721;SDS011;858;53.190;8.596;2023-02-10T06:55:21;49.37;;;25.87;;
1721;SDS011;858;53.190;8.596;2023-02-10T06:57:48;39.87;;;25.00;;
1721;SDS011;858;53.190;8.596;2023-02-10T07:00:14;50.50;;;25.17;;
1721;SDS011;858;53.190;8.596;2023-02-10T07:02:42;50.67;;;24.73;;
1721;SDS011;858;53.190;8.596;2023-02-10T07:05:09;46.93;;;24.07;;
1721;SDS011;858;53.190;8.596;2023-02-10T07:07:36;52.57;;;23.07;;
1721;SDS011;858;53.190;8.596;2023-02-10T07:10:03;48.03;;;23.33;;
1721;SDS011;858;53.190;8.596;2023-02-10T07:12:29;46.70;;;24.30;;
1721;SDS011;858;53.190;8.596;2023-02-10T07:14:56;45.27;;;23.33;;
1721;SDS011;858;53.190;8.596;2023-02-10T07:17:22;57.83;;;25.17;;
1721;SDS011;858;53.190;8.596;2023-02-10T07:19:50;47.93;;;25.50;;
1721;SDS011;858;53.190;8.596;2023-02-10T07:22:17;52.40;;;25.80;;
1721;SDS011;858;53.190;8.596;2023-02-10T07:24:43;50.83;;;24.70;;
1721;SDS011;858;53.190;8.596;2023-02-10T07:27:10;39.13;;;23.50;;
1721;SDS011;858;53.190;8.596;2023-02-10T07:29:37;48.67;;;25.17;;
1721;SDS011;858;53.190;8.596;2023-02-10T07:32:03;45.87;;;24.70;;
1721;SDS011;858;53.190;8.596;2023-02-10T07:34:30;51.50;;;25.47;;
1721;SDS011;858;53.190;8.596;2023-02-10T07:37:00;45.30;;;25.00;;
1721;SDS011;858;53.190;8.596;2023-02-10T07:39:27;43.83;;;23.80;;
1721;SDS011;858;53.190;8.596;2023-02-10T07:41:53;39.60;;;24.03;;
1721;SDS011;858;53.190;8.596;2023-02-10T07:44:20;50.63;;;24.67;;
1721;SDS011;858;53.190;8.596;2023-02-10T07:46:47;45.80;;;24.27;;
1721;SDS011;858;53.190;8.596;2023-02-10T07:49:14;37.20;;;22.80;;
1721;SDS011;858;53.190;8.596;2023-02-10T07:51:41;48.13;;;24.73;;
1721;SDS011;858;53.190;8.596;2023-02-10T07:54:09;45.60;;;24.37;;
1721;SDS011;858;53.190;8.596;2023-02-10T07:56:35;45.43;;;24.37;;
1721;SDS011;858;53.190;8.596;2023-02-10T07:59:01;54.33;;;25.13;;
1721;SDS011;858;53.190;8.596;2023-02-10T08:01:28;42.93;;;24.23;;
1721;SDS011;858;53.190;8.596;2023-02-10T08:03:55;42.33;;;24.33;;
1721;SDS011;858;53.190;8.596;2023-02-10T08:06:23;40.43;;;23.70;;
1721;SDS011;858;53.190;8.596;2023-02-10T08:08:50;54.13;;;25.93;;
1721;SDS011;858;53.190;8.596;2023-02-10T08:11:18;49.53;;;25.20;;
1721;SDS011;858;53.190;8.596;2023-02-10T08:13:44;56.00;;;24.93;;
1721;SDS011;858;53.190;8.596;2023-02-10T08:16:11;47.70;;;23.27;;
1721;SDS011;858;53.190;8.596;2023-02-10T08:18:37;48.20;;;23.27;;
1721;SDS011;858;53.190;8.596;2023-02-10T08:21:04;41.93;;;24.40;;
1721;SDS011;858;53.190;8.596;2023-02-10T08:23:31;43.80;;;24.40;;
1721;SDS011;858;53.190;8.596;2023-02-10T08:25:57;64.67;;;25.07;;
1721;SDS011;858;53.190;8.596;2023-02-10T08:28:25;57.63;;;24.57;;
1721;SDS011;858;53.190;8.596;2023-02-10T08:30:52;45.97;;;24.63;;
1721;SDS011;858;53.190;8.596;2023-02-10T08:33:18;53.13;;;23.27;;
1721;SDS011;858;53.190;8.596;2023-02-10T08:35:44;46.30;;;23.37;;
1721;SDS011;858;53.190;8.596;2023-02-10T08:38:11;39.00;;;22.07;;
1721;SDS011;858;53.190;8.596;2023-02-10T08:40:38;44.27;;;24.20;;
1721;SDS011;858;53.190;8.596;2023-02-10T08:43:04;41.17;;;22.97;;
1721;SDS011;858;53.190;8.596;2023-02-10T08:45:32;52.63;;;26.73;;
1721;SDS011;858;53.190;8.596;2023-02-10T08:47:58;43.73;;;26.10;;
1721;SDS011;858;53.190;8.596;2023-02-10T08:50:26;47.10;;;24.50;;
1721;SDS011;858;53.190;8.596;2023-02-10T08:52:52;38.83;;;23.17;;
1721;SDS011;858;53.190;8.596;2023-02-10T08:55:19;50.33;;;26.50;;
1721;SDS011;858;53.190;8.596;2023-02-10T08:57:45;49.30;;;25.80;;
1721;SDS011;858;53.190;8.596;2023-02-10T09:00:13;51.90;;;25.10;;
1721;SDS011;858;53.190;8.596;2023-02-10T09:02:41;43.17;;;24.67;;
1721;SDS011;858;53.190;8.596;2023-02-10T09:05:07;45.30;;;24.67;;
1721;SDS011;858;53.190;8.596;2023-02-10T09:07:34;51.20;;;24.77;;
1721;SDS011;858;53.190;8.596;2023-02-10T09:10:00;48.07;;;24.63;;
1721;SDS011;858;53.190;8.596;2023-02-10T09:12:27;40.80;;;23.93;;
1721;SDS011;858;53.190;8.596;2023-02-10T09:14:53;46.17;;;22.83;;
1721;SDS011;858;53.190;8.596;2023-02-10T09:17:20;45.73;;;23.60;;
1721;SDS011;858;53.190;8.596;2023-02-10T09:19:48;40.57;;;24.40;;
1721;SDS011;858;53.190;8.596;2023-02-10T09:22:14;39.97;;;23.43;;
1721;SDS011;858;53.190;8.596;2023-02-10T09:24:41;46.53;;;23.73;;
1721;SDS011;858;53.190;8.596;2023-02-10T09:27:11;36.73;;;22.10;;
1721;SDS011;858;53.190;8.596;2023-02-10T09:29:39;50.47;;;23.30;;
1721;SDS011;858;53.190;8.596;2023-02-10T09:32:07;49.20;;;23.70;;
1721;SDS011;858;53.190;8.596;2023-02-10T09:34:34;43.43;;;21.20;;
1721;SDS011;858;53.190;8.596;2023-02-10T09:37:02;43.97;;;23.57;;
1721;SDS011;858;53.190;8.596;2023-02-10T09:39:29;36.87;;;23.93;;
1721;SDS011;858;53.190;8.596;2023-02-10T09:41:57;41.43;;;21.57;;
1721;SDS011;858;53.190;8.596;2023-02-10T09:44:28;34.70;;;21.20;;
1721;SDS011;858;53.190;8.596;2023-02-10T09:49:47;40.87;;;21.60;;
1721;SDS011;858;53.190;8.596;2023-02-10T09:52:20;49.60;;;21.87;;
1721;SDS011;858;53.190;8.596;2023-02-10T09:54:52;30.20;;;19.67;;
1721;SDS011;858;53.190;8.596;2023-02-10T09:57:20;40.33;;;20.03;;
1721;SDS011;858;53.190;8.596;2023-02-10T09:59:47;36.63;;;21.00;;
1721;SDS011;858;53.190;8.596;2023-02-10T10:02:16;32.83;;;18.93;;
1721;SDS011;858;53.190;8.596;2023-02-10T10:04:44;42.33;;;22.13;;
1721;SDS011;858;53.190;8.596;2023-02-10T10:07:13;41.80;;;22.20;;
1721;SDS011;858;53.190;8.596;2023-02-10T10:09:44;46.17;;;23.27;;
1721;SDS011;858;53.190;8.596;2023-02-10T10:12:13;43.13;;;22.97;;
1721;SDS011;858;53.190;8.596;2023-02-10T10:14:41;34.33;;;19.83;;
1721;SDS011;858;53.190;8.596;2023-02-10T10:17:19;36.37;;;19.57;;
1721;SDS011;858;53.190;8.596;2023-02-10T10:19:53;38.57;;;19.57;;
1721;SDS011;858;53.190;8.596;2023-02-10T10:22:25;40.37;;;19.13;;
1721;SDS011;858;53.190;8.596;2023-02-10T10:25:04;41.97;;;21.43;;
1721;SDS011;858;53.190;8.596;2023-02-10T10:27:33;31.97;;;19.23;;
1721;SDS011;858;53.190;8.596;2023-02-10T10:30:02;34.57;;;18.90;;
1721;SDS011;858;53.190;8.596;2023-02-10T10:32:34;35.43;;;19.10;;
1721;SDS011;858;53.190;8.596;2023-02-10T10:35:03;33.80;;;20.90;;
1721;SDS011;858;53.190;8.596;2023-02-10T10:37:29;42.77;;;21.63;;
1721;SDS011;858;53.190;8.596;2023-02-10T10:40:03;33.60;;;20.77;;
1721;SDS011;858;53.190;8.596;2023-02-10T10:42:35;39.73;;;19.10;;
1721;SDS011;858;53.190;8.596;2023-02-10T10:45:04;39.00;;;20.13;;
1721;SDS011;858;53.190;8.596;2023-02-10T10:47:36;39.97;;;20.40;;
1721;SDS011;858;53.190;8.596;2023-02-10T10:50:02;43.77;;;19.23;;
1721;SDS011;858;53.190;8.596;2023-02-10T10:52:31;39.00;;;18.53;;
1721;SDS011;858;53.190;8.596;2023-02-10T10:54:58;37.53;;;19.80;;
1721;SDS011;858;53.190;8.596;2023-02-10T10:57:28;33.63;;;19.07;;
1721;SDS011;858;53.190;8.596;2023-02-10T10:59:57;39.47;;;19.83;;
1721;SDS011;858;53.190;8.596;2023-02-10T11:02:24;42.03;;;19.70;;
1721;SDS011;858;53.190;8.596;2023-02-10T11:05:01;40.40;;;20.40;;
1721;SDS011;858;53.190;8.596;2023-02-10T11:07:28;36.10;;;18.53;;
1721;SDS011;858;53.190;8.596;2023-02-10T11:09:57;35.77;;;20.37;;
1721;SDS011;858;53.190;8.596;2023-02-10T11:12:27;38.83;;;21.27;;
1721;SDS011;858;53.190;8.596;2023-02-10T11:14:55;36.33;;;20.43;;
1721;SDS011;858;53.190;8.596;2023-02-10T11:17:23;33.77;;;19.57;;
1721;SDS011;858;53.190;8.596;2023-02-10T11:19:54;38.53;;;20.67;;
1721;SDS011;858;53.190;8.596;2023-02-10T11:22:21;30.33;;;18.63;;
1721;SDS011;858;53.190;8.596;2023-02-10T11:24:49;29.10;;;19.27;;
1721;SDS011;858;53.190;8.596;2023-02-10T11:27:15;35.50;;;21.00;;
1721;SDS011;858;53.190;8.596;2023-02-10T11:29:45;43.30;;;20.17;;
1721;SDS011;858;53.190;8.596;2023-02-10T11:32:17;34.43;;;20.30;;
1721;SDS011;858;53.190;8.596;2023-02-10T11:34:44;30.90;;;18.30;;
1721;SDS011;858;53.190;8.596;2023-02-10T11:37:18;32.10;;;18.53;;
1721;SDS011;858;53.190;8.596;2023-02-10T11:39:45;38.20;;;21.83;;
1721;SDS011;858;53.190;8.596;2023-02-10T11:42:16;29.40;;;19.37;;
1721;SDS011;858;53.190;8.596;2023-02-10T11:44:51;38.17;;;19.77;;
1721;SDS011;858;53.190;8.596;2023-02-10T11:47:20;29.43;;;18.50;;
1721;SDS011;858;53.190;8.596;2023-02-10T11:49:47;33.43;;;19.17;;
1721;SDS011;858;53.190;8.596;2023-02-10T11:52:14;31.20;;;18.60;;
1721;SDS011;858;53.190;8.596;2023-02-10T11:54:42;41.80;;;19.23;;
1721;SDS011;858;53.190;8.596;2023-02-10T11:57:16;32.60;;;19.20;;
1721;SDS011;858;53.190;8.596;2023-02-10T12:00:06;31.23;;;18.00;;
1721;SDS011;858;53.190;8.596;2023-02-10T12:02:39;25.57;;;17.50;;
1721;SDS011;858;53.190;8.596;2023-02-10T12:05:13;25.90;;;17.10;;
1721;SDS011;858;53.190;8.596;2023-02-10T12:07:47;35.03;;;19.07;;
1721;SDS011;858;53.190;8.596;2023-02-10T12:10:17;33.73;;;17.93;;
1721;SDS011;858;53.190;8.596;2023-02-10T12:12:47;47.23;;;19.17;;
1721;SDS011;858;53.190;8.596;2023-02-10T12:15:20;35.90;;;18.47;;
1721;SDS011;858;53.190;8.596;2023-02-10T12:17:55;35.07;;;18.70;;
1721;SDS011;858;53.190;8.596;2023-02-10T12:20:30;32.20;;;18.50;;
1721;SDS011;858;53.190;8.596;2023-02-10T12:23:11;25.70;;;18.00;;
1721;SDS011;858;53.190;8.596;2023-02-10T12:25:43;33.30;;;17.30;;
1721;SDS011;858;53.190;8.596;2023-02-10T12:28:13;34.23;;;19.13;;
1721;SDS011;858;53.190;8.596;2023-02-10T12:30:43;32.33;;;18.00;;
1721;SDS011;858;53.190;8.596;2023-02-10T12:33:20;36.90;;;18.30;;
1721;SDS011;858;53.190;8.596;2023-02-10T12:35:52;35.63;;;21.03;;
1721;SDS011;858;53.190;8.596;2023-02-10T12:38:25;29.50;;;17.50;;
1721;SDS011;858;53.190;8.596;2023-02-10T12:40:58;31.97;;;18.47;;
1721;SDS011;858;53.190;8.596;2023-02-10T12:43:31;30.10;;;18.53;;
1721;SDS011;858;53.190;8.596;2023-02-10T12:46:02;29.83;;;18.20;;
1721;SDS011;858;53.190;8.596;2023-02-10T12:48:35;35.50;;;18.67;;
1721;SDS011;858;53.190;8.596;2023-02-10T12:51:18;35.23;;;17.53;;
1721;SDS011;858;53.190;8.596;2023-02-10T12:53:52;27.87;;;17.13;;
1721;SDS011;858;53.190;8.596;2023-02-10T12:56:22;40.00;;;19.63;;
1721;SDS011;858;53.190;8.596;2023-02-10T12:58:50;34.40;;;19.03;;
1721;SDS011;858;53.190;8.596;2023-02-10T13:01:19;34.00;;;17.83;;
1721;SDS011;858;53.190;8.596;2023-02-10T13:03:49;33.30;;;18.47;;
1721;SDS011;858;53.190;8.596;2023-02-10T13:06:25;34.80;;;18.47;;
1721;SDS011;858;53.190;8.596;2023-02-10T13:08:53;48.53;;;20.30;;
1721;SDS011;858;53.190;8.596;2023-02-10T13:11:23;31.33;;;16.63;;
1721;SDS011;858;53.190;8.596;2023-02-10T13:13:53;27.90;;;16.27;;
1721;SDS011;858;53.190;8.596;2023-02-10T13:16:24;33.67;;;17.57;;
1721;SDS011;858;53.190;8.596;2023-02-10T13:18:57;30.30;;;18.43;;
1721;SDS011;858;53.190;8.596;2023-02-10T13:21:27;35.47;;;19.53;;
1721;SDS011;858;53.190;8.596;2023-02-10T13:23:56;35.53;;;18.73;;
1721;SDS011;858;53.190;8.596;2023-02-10T13:26:32;32.37;;;17.47;;
1721;SDS011;858;53.190;8.596;2023-02-10T13:29:05;38.27;;;18.97;;
1721;SDS011;858;53.190;8.596;2023-02-10T13:31:42;30.07;;;16.73;;
1721;SDS011;858;53.190;8.596;2023-02-10T13:34:15;35.37;;;18.00;;
1721;SDS011;858;53.190;8.596;2023-02-10T13:36:42;32.60;;;17.77;;
1721;SDS011;858;53.190;8.596;2023-02-10T13:39:14;29.53;;;17.47;;
1721;SDS011;858;53.190;8.596;2023-02-10T13:41:41;25.40;;;17.17;;
1721;SDS011;858;53.190;8.596;2023-02-10T13:44:18;31.63;;;17.00;;
1721;SDS011;858;53.190;8.596;2023-02-10T13:46:46;33.00;;;16.10;;
1721;SDS011;858;53.190;8.596;2023-02-10T13:49:17;38.13;;;17.50;;
1721;SDS011;858;53.190;8.596;2023-02-10T13:51:44;29.77;;;16.10;;
1721;SDS011;858;53.190;8.596;2023-02-10T13:54:23;28.97;;;18.53;;
1721;SDS011;858;53.190;8.596;2023-02-10T13:56:52;33.67;;;17.57;;
1721;SDS011;858;53.190;8.596;2023-02-10T13:59:23;28.30;;;16.00;;
1721;SDS011;858;53.190;8.596;2023-02-10T14:02:01;33.33;;;16.80;;
1721;SDS011;858;53.190;8.596;2023-02-10T14:04:38;29.43;;;17.70;;
1721;SDS011;858;53.190;8.596;2023-02-10T14:07:13;30.33;;;17.00;;
1721;SDS011;858;53.190;8.596;2023-02-10T14:09:39;27.87;;;16.63;;
1721;SDS011;858;53.190;8.596;2023-02-10T14:12:22;28.57;;;17.43;;
1721;SDS011;858;53.190;8.596;2023-02-10T14:14:49;32.50;;;14.10;;
1721;SDS011;858;53.190;8.596;2023-02-10T14:17:18;24.70;;;13.43;;
1721;SDS011;858;53.190;8.596;2023-02-10T14:19:50;21.13;;;12.37;;
1721;SDS011;858;53.190;8.596;2023-02-10T14:22:23;27.93;;;14.47;;
1721;SDS011;858;53.190;8.596;2023-02-10T14:24:51;26.43;;;15.07;;
1721;SDS011;858;53.190;8.596;2023-02-10T14:27:20;26.97;;;13.90;;
1721;SDS011;858;53.190;8.596;2023-02-10T14:29:48;29.70;;;14.10;;
1721;SDS011;858;53.190;8.596;2023-02-10T14:32:15;28.47;;;13.53;;
1721;SDS011;858;53.190;8.596;2023-02-10T14:34:53;23.53;;;13.43;;
1721;SDS011;858;53.190;8.596;2023-02-10T14:37:22;26.63;;;13.50;;
1721;SDS011;858;53.190;8.596;2023-02-10T14:39:49;27.67;;;13.90;;
1721;SDS011;858;53.190;8.596;2023-02-10T14:42:16;25.30;;;12.87;;
1721;SDS011;858;53.190;8.596;2023-02-10T14:44:43;29.67;;;14.60;;
1721;SDS011;858;53.190;8.596;2023-02-10T14:47:14;27.63;;;13.43;;
1721;SDS011;858;53.190;8.596;2023-02-10T14:49:41;24.27;;;12.20;;
1721;SDS011;858;53.190;8.596;2023-02-10T14:52:18;20.60;;;12.80;;
1721;SDS011;858;53.190;8.596;2023-02-10T14:54:47;22.40;;;11.87;;
1721;SDS011;858;53.190;8.596;2023-02-10T14:57:14;24.97;;;12.67;;
1721;SDS011;858;53.190;8.596;2023-02-10T14:59:42;22.50;;;11.03;;
1721;SDS011;858;53.190;8.596;2023-02-10T15:02:10;31.40;;;13.37;;
1721;SDS011;858;53.190;8.596;2023-02-10T15:04:42;22.53;;;12.70;;
1721;SDS011;858;53.190;8.596;2023-02-10T15:07:10;22.77;;;12.63;;
1721;SDS011;858;53.190;8.596;2023-02-10T15:09:41;25.07;;;11.27;;
1721;SDS011;858;53.190;8.596;2023-02-10T15:12:08;23.70;;;11.83;;
1721;SDS011;858;53.190;8.596;2023-02-10T15:14:40;15.23;;;10.40;;
1721;SDS011;858;53.190;8.596;2023-02-10T15:17:08;23.13;;;10.97;;